createdAt,value
2023-05-05T10:23:03.682Z,2.74
2023-05-05T10:24:02.154Z,2.82
2023-05-05T10:25:02.105Z,3.31
2023-05-05T10:26:02.153Z,2.38
2023-05-05T10:27:02.145Z,2.40
2023-05-05T10:28:03.926Z,2.67
2023-05-05T10:29:02.101Z,2.45
2023-05-05T10:30:02.086Z,2.67
2023-05-05T10:31:02.236Z,2.28
2023-05-05T10:32:10.261Z,2.40
2023-05-05T10:33:22.854Z,1.95
2023-05-05T10:34:03.367Z,2.25
2023-05-05T10:35:02.114Z,2.74
2023-05-05T10:36:02.054Z,2.45
2023-05-05T10:37:02.063Z,2.37
2023-05-05T10:38:02.073Z,2.73
2023-05-05T10:39:02.089Z,2.16
2023-05-05T10:40:02.022Z,1.75
2023-05-05T10:41:02.193Z,2.05
2023-05-05T10:42:02.071Z,2.51
2023-05-05T10:43:02.048Z,2.15
2023-05-05T10:44:04.240Z,1.93
2023-05-05T10:45:02.159Z,1.72
2023-05-05T10:46:02.204Z,2.09
2023-05-05T10:47:02.222Z,2.20
2023-05-05T10:48:02.270Z,1.82
2023-05-05T10:49:02.223Z,1.72
2023-05-05T10:50:02.209Z,2.06
2023-05-05T10:51:02.187Z,1.61
2023-05-05T10:52:02.251Z,1.96
2023-05-05T10:53:02.273Z,1.92
2023-05-05T10:54:02.339Z,1.52
2023-05-05T10:55:02.345Z,2.07
2023-05-05T10:56:02.265Z,2.19
2023-05-05T10:57:02.282Z,2.19
2023-05-05T10:58:02.255Z,2.21
2023-05-05T10:59:02.241Z,2.48
2023-05-05T11:00:02.265Z,1.68
2023-05-05T11:01:02.261Z,2.30
2023-05-05T11:02:02.260Z,2.00
2023-05-05T11:03:02.287Z,2.24
2023-05-05T11:04:02.329Z,2.44
2023-05-05T11:05:02.292Z,2.30
2023-05-05T11:06:02.330Z,2.49
2023-05-05T11:07:02.437Z,2.35
2023-05-05T11:08:02.450Z,2.37
2023-05-05T11:09:02.512Z,2.25
2023-05-05T11:10:02.583Z,2.58
2023-05-05T11:11:02.667Z,2.08
2023-05-05T11:12:02.711Z,2.08
2023-05-05T11:13:02.937Z,1.74
2023-05-05T11:14:02.755Z,2.04
2023-05-05T11:15:02.857Z,1.65
2023-05-05T11:16:02.867Z,2.17
2023-05-05T11:17:02.942Z,2.17
2023-05-05T11:18:06.786Z,2.44
2023-05-05T11:19:02.930Z,2.08
2023-05-05T11:20:02.942Z,2.18
2023-05-05T11:21:03.372Z,2.00
2023-05-05T11:22:02.969Z,2.01
2023-05-05T11:23:02.951Z,2.17
2023-05-05T11:24:02.939Z,2.29
2023-05-05T11:25:02.921Z,2.31
2023-05-05T11:26:02.946Z,2.09
2023-05-05T11:27:02.990Z,2.57
2023-05-05T11:28:02.898Z,2.05
2023-05-05T11:29:02.911Z,1.88
2023-05-05T11:30:02.920Z,2.64
2023-05-05T11:31:02.935Z,1.69
2023-05-05T11:32:02.872Z,1.89
2023-05-05T11:33:02.909Z,2.08
2023-05-05T11:34:03.500Z,1.95
2023-05-05T11:35:02.906Z,2.36
2023-05-05T11:36:05.823Z,1.96
2023-05-05T11:37:02.965Z,1.91
2023-05-05T11:38:02.895Z,1.93
2023-05-05T11:39:02.934Z,1.87
2023-05-05T11:40:02.940Z,2.32
2023-05-05T11:41:02.870Z,1.89
2023-05-05T11:42:08.092Z,2.13
2023-05-05T11:43:03.869Z,1.41
2023-05-05T11:44:02.917Z,2.22
2023-05-05T11:45:02.905Z,1.77
2023-05-05T11:46:02.941Z,1.87
2023-05-05T11:47:02.893Z,1.75
2023-05-05T11:48:02.933Z,1.46
2023-05-05T11:49:02.876Z,2.06
2023-05-05T11:50:02.892Z,1.65
2023-05-05T11:51:02.840Z,1.60
2023-05-05T11:52:02.852Z,1.76
2023-05-05T11:53:02.868Z,1.19
2023-05-05T11:54:02.869Z,2.03
2023-05-05T11:55:02.832Z,1.91
2023-05-05T11:56:02.834Z,1.50
2023-05-05T11:57:02.836Z,1.83
2023-05-05T11:58:02.855Z,1.90
2023-05-05T11:59:02.972Z,2.01
2023-05-05T12:00:02.908Z,1.74
2023-05-05T12:01:02.928Z,1.40
2023-05-05T12:02:02.962Z,1.93
2023-05-05T12:03:03.189Z,1.76
2023-05-05T12:04:03.221Z,1.65
2023-05-05T12:05:02.989Z,1.37
2023-05-05T12:06:02.999Z,1.48
2023-05-05T12:07:03.002Z,1.74
2023-05-05T12:08:03.036Z,1.95
2023-05-05T12:09:03.030Z,1.94
2023-05-05T12:10:03.048Z,2.56
2023-05-05T12:11:03.078Z,1.89
2023-05-05T12:12:03.114Z,2.16
2023-05-05T12:13:03.149Z,2.45
2023-05-05T12:14:03.164Z,2.36
2023-05-05T12:15:03.227Z,2.15
2023-05-05T12:16:03.191Z,2.17
2023-05-05T12:17:03.177Z,2.34
2023-05-05T12:18:03.532Z,2.38
2023-05-05T12:19:03.243Z,1.89
2023-05-05T12:20:03.268Z,1.84
2023-05-05T12:21:03.253Z,2.11
2023-05-05T12:22:03.261Z,2.28
2023-05-05T12:23:03.318Z,2.10
2023-05-05T12:24:03.285Z,1.87
2023-05-05T12:25:03.334Z,1.96
2023-05-05T12:26:03.337Z,2.24
2023-05-05T12:27:03.345Z,2.03
2023-05-05T12:28:03.402Z,1.98
2023-05-05T12:29:03.418Z,1.60
2023-05-05T12:30:03.462Z,2.08
2023-05-05T12:31:03.572Z,1.85
2023-05-05T12:32:03.506Z,2.09
2023-05-05T12:33:03.516Z,2.17
2023-05-05T12:34:03.499Z,1.69
2023-05-05T12:35:03.562Z,1.91
2023-05-05T12:36:03.575Z,1.97
2023-05-05T12:37:03.593Z,1.64
2023-05-05T12:38:03.631Z,2.20
2023-05-05T12:39:03.632Z,2.05
2023-05-05T12:40:03.639Z,2.24
2023-05-05T12:41:03.658Z,1.89
2023-05-05T12:42:03.703Z,1.95
2023-05-05T12:43:03.700Z,2.45
2023-05-05T12:44:03.729Z,2.10
2023-05-05T12:45:03.791Z,1.63
2023-05-05T12:46:03.842Z,2.12
2023-05-05T12:47:03.852Z,1.65
2023-05-05T12:48:03.938Z,1.69
2023-05-05T12:49:03.864Z,2.22
2023-05-05T12:50:03.875Z,1.85
2023-05-05T12:51:03.886Z,1.81
2023-05-05T12:52:03.930Z,1.82
2023-05-05T12:53:03.942Z,2.03
2023-05-05T12:54:03.965Z,1.88
2023-05-05T12:55:03.948Z,2.09
2023-05-05T12:56:03.959Z,1.61
2023-05-05T12:57:03.977Z,1.47
2023-05-05T12:58:03.965Z,2.32
2023-05-05T12:59:03.983Z,1.76
2023-05-05T13:00:03.987Z,1.77
2023-05-05T13:01:04.045Z,2.05
2023-05-05T13:02:04.078Z,1.75
2023-05-05T13:03:04.132Z,1.88
2023-05-05T13:04:04.026Z,2.13
2023-05-05T13:05:04.034Z,1.96
2023-05-05T13:06:04.064Z,1.89
2023-05-05T13:07:04.081Z,2.24
2023-05-05T13:08:04.073Z,1.94
2023-05-05T13:09:04.104Z,2.38
2023-05-05T13:10:04.159Z,2.60
2023-05-05T13:11:04.103Z,2.11
2023-05-05T13:12:04.112Z,3.21
2023-05-05T13:13:04.165Z,2.52
2023-05-05T13:14:04.195Z,2.79
2023-05-05T13:15:04.233Z,2.33
2023-05-05T13:16:04.332Z,2.88
2023-05-05T13:17:04.315Z,2.57
2023-05-05T13:18:04.360Z,2.43
2023-05-05T13:19:04.529Z,3.03
2023-05-05T13:20:04.372Z,2.44
2023-05-05T13:21:04.451Z,2.70
2023-05-05T13:22:04.487Z,2.50
2023-05-05T13:23:04.539Z,3.34
2023-05-05T13:24:21.491Z,3.03
2023-05-05T13:25:05.536Z,2.75
2023-05-05T13:26:04.617Z,2.96
2023-05-05T13:27:04.568Z,3.35
2023-05-05T13:28:04.515Z,2.50
2023-05-05T13:29:04.536Z,3.06
2023-05-05T13:30:04.516Z,2.41
2023-05-05T13:31:04.582Z,2.72
2023-05-05T13:32:04.617Z,2.94
2023-05-05T13:33:04.996Z,3.59
2023-05-05T13:34:04.674Z,2.69
2023-05-05T13:35:04.723Z,3.09
2023-05-05T13:36:04.788Z,2.81
2023-05-05T13:37:04.771Z,2.79
2023-05-05T13:38:04.804Z,2.70
2023-05-05T13:39:04.881Z,2.92
2023-05-05T13:40:04.948Z,2.86
2023-05-05T13:41:04.999Z,2.66
2023-05-05T13:42:05.130Z,2.47
2023-05-05T13:43:05.098Z,2.54
2023-05-05T13:44:05.142Z,3.03
2023-05-05T13:45:05.223Z,2.39
2023-05-05T13:46:18.740Z,2.60
2023-05-05T13:47:06.284Z,2.27
2023-05-05T13:48:05.261Z,2.87
2023-05-05T13:49:05.247Z,2.31
2023-05-05T13:50:05.220Z,2.46
2023-05-05T13:51:05.366Z,2.57
2023-05-05T13:52:05.196Z,2.49
2023-05-05T13:53:05.219Z,2.72
2023-05-05T13:54:05.182Z,2.12
2023-05-05T13:55:05.172Z,2.41
2023-05-05T13:56:05.195Z,2.12
2023-05-05T13:57:05.232Z,1.84
2023-05-05T13:58:05.299Z,2.27
2023-05-05T13:59:05.364Z,2.00
2023-05-05T14:00:05.455Z,1.69
2023-05-05T14:01:05.484Z,2.04
2023-05-05T14:02:05.522Z,1.71
2023-05-05T14:03:05.634Z,1.87
2023-05-05T14:04:06.038Z,2.04
2023-05-05T14:05:05.795Z,1.94
2023-05-05T14:06:05.764Z,1.67
2023-05-05T14:07:05.817Z,1.85
2023-05-05T14:08:05.864Z,1.43
2023-05-05T14:09:06.425Z,1.86
2023-05-05T14:10:05.991Z,2.09
2023-05-05T14:11:06.066Z,1.69
2023-05-05T14:12:06.107Z,1.87
2023-05-05T14:13:06.261Z,1.80
2023-05-05T14:14:06.226Z,1.87
2023-05-05T14:15:06.330Z,1.50
2023-05-05T14:16:06.338Z,1.73
2023-05-05T14:17:06.420Z,1.37
2023-05-05T14:18:06.430Z,1.69
2023-05-05T14:19:06.504Z,1.69
2023-05-05T14:20:06.525Z,1.04
2023-05-05T14:21:06.574Z,1.70
2023-05-05T14:22:06.646Z,1.25
2023-05-05T14:23:06.757Z,1.43
2023-05-05T14:24:06.801Z,1.47
2023-05-05T14:25:07.080Z,1.63
2023-05-05T14:26:06.953Z,1.59
2023-05-05T14:27:06.970Z,1.32
2023-05-05T14:28:06.984Z,1.52
2023-05-05T14:29:07.097Z,1.06
2023-05-05T14:30:07.138Z,1.80
2023-05-05T14:31:07.181Z,1.48
2023-05-05T14:32:07.262Z,1.40
2023-05-05T14:33:07.419Z,1.22
2023-05-05T14:34:07.323Z,1.37
2023-05-05T14:35:07.515Z,1.54
2023-05-05T14:36:07.509Z,1.09
2023-05-05T14:37:07.547Z,1.31
2023-05-05T14:38:07.613Z,1.66
2023-05-05T14:39:07.664Z,1.38
2023-05-05T14:40:07.720Z,1.45
2023-05-05T14:41:07.690Z,1.66
2023-05-05T14:42:07.769Z,1.33
2023-05-05T14:43:07.797Z,1.06
2023-05-05T14:44:07.863Z,1.49
2023-05-05T14:45:08.139Z,1.59
2023-05-05T14:46:07.993Z,1.80
2023-05-05T14:47:08.009Z,1.55
2023-05-05T14:48:08.046Z,1.54
2023-05-05T14:49:08.084Z,1.32
2023-05-05T14:50:08.168Z,1.63
2023-05-05T14:51:08.218Z,1.81
2023-05-05T14:52:08.270Z,1.20
2023-05-05T14:53:08.329Z,1.54
2023-05-05T14:54:20.509Z,1.30
2023-05-05T14:55:09.682Z,1.48
2023-05-05T14:56:08.364Z,1.52
2023-05-05T14:57:08.354Z,1.79
2023-05-05T14:58:08.356Z,1.58
2023-05-05T14:59:08.338Z,1.60
2023-05-05T15:00:08.366Z,1.33
2023-05-05T15:01:08.377Z,1.35
2023-05-05T15:02:08.310Z,1.58
2023-05-05T15:03:08.413Z,1.66
2023-05-05T15:04:08.405Z,1.42
2023-05-05T15:05:08.750Z,1.81
2023-05-05T15:06:08.519Z,1.75
2023-05-05T15:07:08.575Z,1.18
2023-05-05T15:08:08.672Z,1.60
2023-05-05T15:09:08.740Z,1.57
2023-05-05T15:10:08.881Z,1.42
2023-05-05T15:11:08.864Z,1.46
2023-05-05T15:12:08.851Z,1.28
2023-05-05T15:13:08.986Z,1.90
2023-05-05T15:14:08.985Z,1.84
2023-05-05T15:15:09.215Z,1.72
2023-05-05T15:16:09.175Z,1.47
2023-05-05T15:17:09.136Z,1.51
2023-05-05T15:18:09.150Z,1.43
2023-05-05T15:19:09.144Z,1.10
2023-05-05T15:20:09.186Z,1.49
2023-05-05T15:21:09.170Z,0.93
2023-05-05T15:22:09.173Z,1.58
2023-05-05T15:23:09.198Z,1.19
2023-05-05T15:24:09.160Z,1.24
2023-05-05T15:25:09.351Z,1.42
2023-05-05T15:26:09.160Z,1.69
2023-05-05T15:27:09.122Z,1.67
2023-05-05T15:28:09.201Z,1.57
2023-05-05T15:29:09.189Z,1.51
2023-05-05T15:30:09.132Z,1.25
2023-05-05T15:31:09.161Z,1.66
2023-05-05T15:32:09.158Z,1.17
2023-05-05T15:33:09.155Z,1.65
2023-05-05T15:34:09.157Z,1.70
2023-05-05T15:35:09.361Z,1.07
2023-05-05T15:36:09.201Z,1.47
2023-05-05T15:37:09.193Z,1.62
2023-05-05T15:38:09.951Z,1.55
2023-05-05T15:39:09.357Z,1.49
2023-05-05T15:40:09.267Z,1.05
2023-05-05T15:41:09.213Z,1.30
2023-05-05T15:42:09.226Z,1.42
2023-05-05T15:43:09.346Z,1.36
2023-05-05T15:44:09.241Z,1.17
2023-05-05T15:45:09.416Z,1.51
2023-05-05T15:46:09.288Z,1.11
2023-05-05T15:47:09.412Z,1.16
2023-05-05T15:48:09.311Z,1.36
2023-05-05T15:49:09.398Z,1.28
2023-05-05T15:50:09.378Z,1.10
2023-05-05T15:51:09.389Z,1.62
2023-05-05T15:52:09.405Z,1.36
2023-05-05T15:53:09.427Z,1.14
2023-05-05T15:54:09.441Z,1.24
2023-05-05T15:55:09.621Z,1.18
2023-05-05T15:56:09.534Z,1.17
2023-05-05T15:57:09.529Z,1.47
2023-05-05T15:58:09.606Z,1.44
2023-05-05T15:59:09.534Z,1.47
2023-05-05T16:00:09.588Z,1.20
2023-05-05T16:01:09.722Z,1.25
2023-05-05T16:02:09.678Z,1.11
2023-05-05T16:03:09.748Z,1.35
2023-05-05T16:04:09.708Z,1.66
2023-05-05T16:05:10.023Z,1.50
2023-05-05T16:06:09.787Z,1.16
2023-05-05T16:07:09.882Z,1.23
2023-05-05T16:08:09.916Z,1.14
2023-05-05T16:09:09.914Z,1.51
2023-05-05T16:10:09.967Z,1.31
2023-05-05T16:11:10.004Z,1.48
2023-05-05T16:12:10.032Z,1.75
2023-05-05T16:13:10.153Z,1.48
2023-05-05T16:14:10.174Z,1.64
2023-05-05T16:15:10.678Z,1.26
2023-05-05T16:16:10.209Z,1.54
2023-05-05T16:17:10.286Z,1.60
2023-05-05T16:18:10.327Z,1.42
2023-05-05T16:19:10.333Z,1.24
2023-05-05T16:20:10.473Z,1.81
2023-05-05T16:21:10.627Z,2.89
2023-05-05T16:22:10.501Z,1.80
2023-05-05T16:23:10.588Z,2.48
2023-05-05T16:24:10.558Z,2.92
2023-05-05T16:25:10.850Z,2.30
2023-05-05T16:26:10.708Z,2.50
2023-05-05T16:27:10.804Z,1.82
2023-05-05T16:28:10.866Z,1.75
2023-05-05T16:29:10.924Z,1.75
2023-05-05T16:30:10.993Z,1.94
2023-05-05T16:31:11.216Z,1.68
2023-05-05T16:32:11.103Z,1.73
2023-05-05T16:33:11.200Z,2.09
2023-05-05T16:34:11.222Z,1.51
2023-05-05T16:35:11.249Z,1.93
2023-05-05T16:36:11.261Z,2.04
2023-05-05T16:37:11.327Z,1.76
2023-05-05T16:38:11.299Z,1.87
2023-05-05T16:39:11.351Z,1.83
2023-05-05T16:40:11.354Z,1.91
2023-05-05T16:41:11.426Z,2.00
2023-05-05T16:42:11.417Z,2.06
2023-05-05T16:43:11.422Z,1.94
2023-05-05T16:44:11.597Z,1.94
2023-05-05T16:45:11.570Z,1.63
2023-05-05T16:46:11.441Z,1.82
2023-05-05T16:47:11.508Z,1.79
2023-05-05T16:48:11.445Z,1.76
2023-05-05T16:49:11.453Z,1.44
2023-05-05T16:50:11.478Z,1.60
2023-05-05T16:51:11.401Z,1.61
2023-05-05T16:52:11.420Z,1.50
2023-05-05T16:53:11.450Z,1.15
2023-05-05T16:54:11.500Z,1.60
2023-05-05T16:55:11.655Z,1.45
2023-05-05T16:56:11.461Z,1.71
2023-05-05T16:57:11.443Z,1.56
2023-05-05T16:58:11.449Z,1.43
2023-05-05T16:59:11.486Z,1.60
2023-05-05T17:00:11.494Z,1.74
2023-05-05T17:01:11.574Z,1.87
2023-05-05T17:02:11.508Z,1.46
2023-05-05T17:03:11.572Z,1.62
2023-05-05T17:04:11.534Z,1.79
2023-05-05T17:05:11.759Z,1.31
2023-05-05T17:06:11.561Z,1.60
2023-05-05T17:07:11.570Z,1.34
2023-05-05T17:08:11.577Z,1.58
2023-05-05T17:09:11.583Z,1.17
2023-05-05T17:10:11.593Z,1.41
2023-05-05T17:11:11.916Z,1.32
2023-05-05T17:12:11.701Z,1.17
2023-05-05T17:13:11.783Z,1.50
2023-05-05T17:14:11.750Z,1.11
2023-05-05T17:15:11.817Z,1.62
2023-05-05T17:16:11.776Z,1.30
2023-05-05T17:17:11.825Z,1.74
2023-05-05T17:18:11.785Z,1.27
2023-05-05T17:19:11.914Z,1.61
2023-05-05T17:20:11.866Z,1.26
2023-05-05T17:21:11.878Z,1.29
2023-05-05T17:22:11.892Z,1.28
2023-05-05T17:23:11.891Z,1.11
2023-05-05T17:24:11.949Z,1.57
2023-05-05T17:25:12.086Z,1.75
2023-05-05T17:26:12.000Z,1.48
2023-05-05T17:27:12.044Z,1.27
2023-05-05T17:28:12.059Z,1.44
2023-05-05T17:29:13.029Z,1.73
2023-05-05T17:30:12.085Z,1.48
2023-05-05T17:31:12.117Z,1.75
2023-05-05T17:32:12.186Z,1.31
2023-05-05T17:33:12.167Z,1.05
2023-05-05T17:34:12.195Z,1.03
2023-05-05T17:35:12.246Z,1.26
2023-05-05T17:36:12.211Z,1.27
2023-05-05T17:37:12.240Z,1.56
2023-05-05T17:38:12.261Z,1.44
2023-05-05T17:39:12.291Z,1.36
2023-05-05T17:40:12.348Z,1.81
2023-05-05T17:41:12.359Z,1.37
2023-05-05T17:42:12.433Z,1.06
2023-05-05T17:43:12.429Z,1.15
2023-05-05T17:44:12.444Z,1.41
2023-05-05T17:45:12.742Z,1.56
2023-05-05T17:46:12.506Z,1.41
2023-05-05T17:47:12.531Z,1.34
2023-05-05T17:48:12.563Z,1.23
2023-05-05T17:49:12.608Z,1.56
2023-05-05T17:50:12.610Z,1.42
2023-05-05T17:51:12.708Z,1.29
2023-05-05T17:52:12.684Z,1.57
2023-05-05T17:53:12.749Z,1.35
2023-05-05T17:54:12.744Z,1.48
2023-05-05T17:55:12.911Z,1.32
2023-05-05T17:56:12.822Z,1.35
2023-05-05T17:57:12.895Z,1.33
2023-05-05T17:58:12.937Z,1.55
2023-05-05T17:59:12.945Z,1.10
2023-05-05T18:00:12.989Z,1.73
2023-05-05T18:01:13.022Z,1.08
2023-05-05T18:02:13.102Z,1.56
2023-05-05T18:03:13.163Z,1.73
2023-05-05T18:04:13.112Z,1.24
2023-05-05T18:05:13.217Z,1.60
2023-05-05T18:06:13.237Z,1.46
2023-05-05T18:07:13.408Z,1.34
2023-05-05T18:08:13.317Z,1.34
2023-05-05T18:09:13.409Z,1.51
2023-05-05T18:10:13.432Z,1.49
2023-05-05T18:11:13.489Z,1.39
2023-05-05T18:12:13.508Z,1.16
2023-05-05T18:13:13.811Z,1.33
2023-05-05T18:14:13.658Z,1.32
2023-05-05T18:15:13.674Z,1.31
2023-05-05T18:16:13.782Z,1.94
2023-05-05T18:17:13.753Z,1.49
2023-05-05T18:18:13.889Z,1.05
2023-05-05T18:19:13.874Z,1.44
2023-05-05T18:20:13.964Z,1.32
2023-05-05T18:21:14.044Z,1.40
2023-05-05T18:22:14.039Z,1.24
2023-05-05T18:23:14.162Z,1.58
2023-05-05T18:25:14.165Z,1.14
2023-05-05T18:26:14.149Z,1.69
2023-05-05T18:27:14.126Z,1.66
2023-05-05T18:28:14.142Z,1.51
2023-05-05T18:29:14.177Z,1.35
2023-05-05T18:30:14.118Z,1.85
2023-05-05T18:31:14.292Z,1.56
2023-05-05T18:32:14.114Z,1.28
2023-05-05T18:33:14.092Z,1.41
2023-05-05T18:34:14.112Z,1.19
2023-05-05T18:35:14.115Z,1.45
2023-05-05T18:36:14.091Z,1.50
2023-05-05T18:37:14.093Z,1.57
2023-05-05T18:38:14.090Z,1.40
2023-05-05T18:39:14.088Z,1.42
2023-05-05T18:40:14.058Z,1.23
2023-05-05T18:41:14.076Z,1.45
2023-05-05T18:42:14.068Z,1.42
2023-05-05T18:43:14.097Z,1.40
2023-05-05T18:44:14.200Z,1.62
2023-05-05T18:45:14.282Z,1.29
2023-05-05T18:46:14.352Z,1.60
2023-05-05T18:47:14.405Z,1.51
2023-05-05T18:48:14.462Z,1.32
2023-05-05T18:49:14.525Z,1.65
2023-05-05T18:50:14.550Z,1.93
2023-05-05T18:51:14.595Z,1.38
2023-05-05T18:52:14.652Z,1.62
2023-05-05T18:53:14.658Z,1.55
2023-05-05T18:54:14.697Z,1.54
2023-05-05T18:55:14.804Z,1.56
2023-05-05T18:56:14.740Z,1.86
2023-05-05T18:57:14.802Z,1.37
2023-05-05T18:58:14.800Z,1.29
2023-05-05T18:59:14.816Z,1.58
2023-05-05T19:00:14.840Z,1.63
2023-05-05T19:01:14.864Z,1.66
2023-05-05T19:02:14.900Z,1.79
2023-05-05T19:03:14.889Z,1.51
2023-05-05T19:04:29.533Z,1.63
2023-05-05T19:05:15.909Z,1.46
2023-05-05T19:06:14.876Z,1.37
2023-05-05T19:07:27.638Z,1.62
2023-05-05T19:08:15.876Z,1.70
2023-05-05T19:09:14.867Z,1.40
2023-05-05T19:10:14.839Z,1.23
2023-05-05T19:11:14.844Z,1.55
2023-05-05T19:12:14.814Z,1.43
2023-05-05T19:13:14.868Z,1.49
2023-05-05T19:14:14.873Z,1.63
2023-05-05T19:15:14.790Z,1.18
2023-05-05T19:16:14.834Z,1.41
2023-05-05T19:17:14.824Z,1.98
2023-05-05T19:18:14.814Z,1.19
2023-05-05T19:19:14.795Z,1.53
2023-05-05T19:20:14.770Z,1.54
2023-05-05T19:21:14.803Z,1.46
2023-05-05T19:22:14.783Z,1.77
2023-05-05T19:23:14.750Z,1.54
2023-05-05T19:24:14.790Z,1.57
2023-05-05T19:25:14.722Z,1.48
2023-05-05T19:26:14.775Z,1.67
2023-05-05T19:27:16.601Z,1.37
2023-05-05T19:28:14.714Z,1.45
2023-05-05T19:29:14.718Z,1.60
2023-05-05T19:30:14.725Z,1.61
2023-05-05T19:31:14.700Z,1.29
2023-05-05T19:32:14.756Z,1.52
2023-05-05T19:33:14.702Z,1.74
2023-05-05T19:34:14.725Z,1.76
2023-05-05T19:35:14.728Z,1.68
2023-05-05T19:36:14.769Z,1.32
2023-05-05T19:37:14.813Z,1.44
2023-05-05T19:38:14.795Z,1.63
2023-05-05T19:39:15.983Z,1.72
2023-05-05T19:40:14.842Z,1.38
2023-05-05T19:41:14.819Z,1.60
2023-05-05T19:42:14.821Z,1.65
2023-05-05T19:43:14.914Z,1.48
2023-05-05T19:44:14.877Z,1.69
2023-05-05T19:45:14.903Z,1.58
2023-05-05T19:46:14.930Z,1.71
2023-05-05T19:47:14.888Z,1.72
2023-05-05T19:48:14.927Z,1.50
2023-05-05T19:49:14.932Z,1.44
2023-05-05T19:50:14.962Z,1.16
2023-05-05T19:51:14.970Z,1.57
2023-05-05T19:52:15.010Z,1.32
2023-05-05T19:53:14.993Z,1.47
2023-05-05T19:54:15.029Z,1.46
2023-05-05T19:55:15.084Z,1.60
2023-05-05T19:56:15.024Z,1.23
2023-05-05T19:57:15.095Z,1.67
2023-05-05T19:58:15.076Z,1.45
2023-05-05T19:59:15.182Z,1.60
2023-05-05T20:00:15.184Z,1.87
2023-05-05T20:01:15.225Z,1.86
2023-05-05T20:02:15.183Z,1.54
2023-05-05T20:03:15.474Z,1.96
2023-05-05T20:04:15.234Z,1.69
2023-05-05T20:05:15.246Z,1.65
2023-05-05T20:06:15.277Z,1.40
2023-05-05T20:07:15.346Z,1.47
2023-05-05T20:08:15.360Z,1.73
2023-05-05T20:09:15.354Z,1.63
2023-05-05T20:10:15.388Z,1.81
2023-05-05T20:11:15.407Z,1.39
2023-05-05T20:12:15.458Z,1.71
2023-05-05T20:13:15.507Z,1.95
2023-05-05T20:14:15.523Z,1.56
2023-05-05T20:15:15.598Z,1.63
2023-05-05T20:16:15.549Z,1.44
2023-05-05T20:17:15.576Z,1.82
2023-05-05T20:18:15.692Z,1.78
2023-05-05T20:19:15.667Z,1.53
2023-05-05T20:20:15.864Z,1.78
2023-05-05T20:21:15.740Z,1.37
2023-05-05T20:22:15.720Z,1.94
2023-05-05T20:23:15.813Z,1.56
2023-05-05T20:24:15.803Z,1.43
2023-05-05T20:25:15.872Z,2.11
2023-05-05T20:26:15.892Z,1.68
2023-05-05T20:27:15.887Z,1.55
2023-05-05T20:28:15.950Z,1.65
2023-05-05T20:29:16.019Z,1.79
2023-05-05T20:30:16.025Z,1.35
2023-05-05T20:31:16.163Z,1.37
2023-05-05T20:32:16.081Z,1.78
2023-05-05T20:33:16.120Z,1.81
2023-05-05T20:34:16.147Z,1.62
2023-05-05T20:35:16.171Z,1.73
2023-05-05T20:36:16.264Z,1.38
2023-05-05T20:37:16.330Z,1.71
2023-05-05T20:38:16.294Z,1.16
2023-05-05T20:39:16.306Z,1.68
2023-05-05T20:40:16.389Z,1.62
2023-05-05T20:41:16.393Z,1.48
2023-05-05T20:42:16.446Z,1.42
2023-05-05T20:43:16.639Z,1.30
2023-05-05T20:44:16.539Z,1.21
2023-05-05T20:45:16.560Z,1.58
2023-05-05T20:46:16.668Z,1.42
2023-05-05T20:47:16.695Z,1.46
2023-05-05T20:48:16.747Z,1.72
2023-05-05T20:49:16.764Z,1.69
2023-05-05T20:50:16.804Z,1.30
2023-05-05T20:51:16.872Z,1.33
2023-05-05T20:52:16.895Z,1.52
2023-05-05T20:53:16.916Z,1.47
2023-05-05T20:54:17.027Z,1.36
2023-05-05T20:55:17.048Z,1.32
2023-05-05T20:56:17.066Z,1.42
2023-05-05T20:57:17.116Z,1.67
2023-05-05T20:58:17.163Z,1.75
2023-05-05T20:59:17.211Z,1.26
2023-05-05T21:00:17.277Z,1.25
2023-05-05T21:01:17.317Z,1.22
2023-05-05T21:02:17.424Z,1.31
2023-05-05T21:03:17.594Z,1.60
2023-05-05T21:04:17.465Z,1.67
2023-05-05T21:05:17.571Z,1.53
2023-05-05T21:06:17.591Z,1.24
2023-05-05T21:07:17.636Z,1.53
2023-05-05T21:08:17.700Z,1.60
2023-05-05T21:09:17.752Z,1.39
2023-05-05T21:10:17.804Z,1.40
2023-05-05T21:11:17.863Z,1.17
2023-05-05T21:12:17.878Z,1.48
2023-05-05T21:13:18.017Z,1.31
2023-05-05T21:14:18.027Z,1.46
2023-05-05T21:15:18.054Z,1.28
2023-05-05T21:16:18.139Z,1.27
2023-05-05T21:17:18.162Z,1.23
2023-05-05T21:18:18.225Z,1.43
2023-05-05T21:19:18.344Z,1.36
2023-05-05T21:20:18.335Z,1.21
2023-05-05T21:21:18.401Z,1.38
2023-05-05T21:22:18.509Z,1.38
2023-05-05T21:23:18.535Z,1.40
2023-05-05T21:24:18.620Z,1.35
2023-05-05T21:25:18.661Z,1.51
2023-05-05T21:26:18.741Z,1.19
2023-05-05T21:27:18.794Z,1.41
2023-05-05T21:28:18.855Z,1.44
2023-05-05T21:29:18.913Z,1.39
2023-05-05T21:30:18.973Z,1.25
2023-05-05T21:31:22.197Z,1.28
2023-05-05T21:32:19.118Z,1.45
2023-05-05T21:33:19.011Z,1.28
2023-05-05T21:34:19.001Z,1.59
2023-05-05T21:35:19.048Z,1.29
2023-05-05T21:36:19.050Z,1.43
2023-05-05T21:37:18.973Z,1.59
2023-05-05T21:38:18.972Z,1.59
2023-05-05T21:39:18.982Z,1.15
2023-05-05T21:40:18.994Z,0.92
2023-05-05T21:41:19.001Z,1.42
2023-05-05T21:42:18.958Z,1.56
2023-05-05T21:43:18.952Z,1.32
2023-05-05T21:44:18.961Z,1.24
2023-05-05T21:45:18.968Z,1.57
2023-05-05T21:46:18.959Z,1.62
2023-05-05T21:47:18.955Z,1.69
2023-05-05T21:48:18.935Z,1.19
2023-05-05T21:49:18.923Z,1.33
2023-05-05T21:50:18.902Z,1.54
2023-05-05T21:51:18.908Z,1.45
2023-05-05T21:52:18.914Z,1.45
2023-05-05T21:53:18.923Z,1.82
2023-05-05T21:54:18.885Z,1.24
2023-05-05T21:55:18.934Z,1.17
2023-05-05T21:56:18.878Z,1.01
2023-05-05T21:57:18.850Z,1.05
2023-05-05T21:58:18.856Z,1.64
2023-05-05T21:59:19.002Z,1.20
2023-05-05T22:00:19.137Z,1.11
2023-05-05T22:01:18.845Z,1.66
2023-05-05T22:02:18.988Z,1.33
2023-05-05T22:03:18.887Z,1.25
2023-05-05T22:04:18.825Z,1.42
2023-05-05T22:05:18.855Z,1.59
2023-05-05T22:06:18.798Z,1.27
2023-05-05T22:07:18.829Z,1.14
2023-05-05T22:08:18.782Z,1.21
2023-05-05T22:09:18.752Z,1.22
2023-05-05T22:10:18.811Z,1.20
2023-05-05T22:11:18.779Z,1.02
2023-05-05T22:12:18.784Z,1.27
2023-05-05T22:13:18.803Z,1.08
2023-05-05T22:14:18.812Z,1.15
2023-05-05T22:15:18.753Z,1.06
2023-05-05T22:16:18.852Z,1.04
2023-05-05T22:17:18.753Z,1.13
2023-05-05T22:18:18.734Z,1.35
2023-05-05T22:19:18.692Z,1.03
2023-05-05T22:20:18.720Z,0.86
2023-05-05T22:21:18.685Z,1.09
2023-05-05T22:22:18.711Z,1.19
2023-05-05T22:23:18.708Z,1.33
2023-05-05T22:24:18.698Z,0.98
2023-05-05T22:25:18.733Z,1.43
2023-05-05T22:26:18.730Z,1.24
2023-05-05T22:27:18.656Z,0.96
2023-05-05T22:28:18.696Z,1.44
2023-05-05T22:29:18.722Z,1.07
2023-05-05T22:30:18.626Z,0.80
2023-05-05T22:31:18.732Z,1.18
2023-05-05T22:32:18.664Z,1.26
2023-05-05T22:33:18.688Z,1.44
2023-05-05T22:34:18.686Z,1.28
2023-05-05T22:35:18.640Z,1.05
2023-05-05T22:36:18.639Z,1.42
2023-05-05T22:37:18.607Z,1.36
2023-05-05T22:38:18.663Z,1.28
2023-05-05T22:39:18.729Z,1.06
2023-05-05T22:40:18.550Z,1.18
2023-05-05T22:41:18.586Z,1.15
2023-05-05T22:42:18.565Z,1.35
2023-05-05T22:43:18.582Z,0.76
2023-05-05T22:44:18.604Z,1.32
2023-05-05T22:45:18.564Z,1.03
2023-05-05T22:46:18.575Z,1.03
2023-05-05T22:47:18.593Z,1.30
2023-05-05T22:48:18.592Z,1.15
2023-05-05T22:49:18.545Z,1.09
2023-05-05T22:50:18.529Z,1.01
2023-05-05T22:51:18.491Z,1.19
2023-05-05T22:52:18.497Z,0.95
2023-05-05T22:53:18.503Z,1.19
2023-05-05T22:54:18.514Z,1.01
2023-05-05T22:55:18.520Z,1.10
2023-05-05T22:56:18.458Z,1.16
2023-05-05T22:57:18.462Z,1.23
2023-05-05T22:58:18.469Z,1.37
2023-05-05T22:59:18.452Z,1.43
2023-05-05T23:00:18.453Z,0.96
2023-05-05T23:01:18.456Z,0.96
2023-05-05T23:02:18.465Z,1.09
2023-05-05T23:03:18.469Z,1.00
2023-05-05T23:04:18.436Z,0.94
2023-05-05T23:05:18.498Z,1.08
2023-05-05T23:06:18.504Z,0.96
2023-05-05T23:07:18.516Z,1.12
2023-05-05T23:08:18.496Z,0.93
2023-05-05T23:09:18.510Z,0.91
2023-05-05T23:10:18.516Z,1.08
2023-05-05T23:11:18.663Z,1.08
2023-05-05T23:12:18.574Z,1.03
2023-05-05T23:13:18.653Z,1.43
2023-05-05T23:14:18.586Z,1.27
2023-05-05T23:15:18.614Z,0.84
2023-05-05T23:16:18.624Z,1.15
2023-05-05T23:17:18.671Z,1.05
2023-05-05T23:18:18.683Z,1.22
2023-05-05T23:19:18.670Z,0.93
2023-05-05T23:20:18.755Z,0.71
2023-05-05T23:21:18.689Z,1.08
2023-05-05T23:22:18.736Z,0.83
2023-05-05T23:23:18.818Z,1.23
2023-05-05T23:24:18.765Z,0.80
2023-05-05T23:25:18.785Z,1.03
2023-05-05T23:26:18.828Z,0.96
2023-05-05T23:27:18.879Z,1.07
2023-05-05T23:28:18.839Z,1.34
2023-05-05T23:29:18.874Z,1.27
2023-05-05T23:30:18.902Z,1.21
2023-05-05T23:31:19.143Z,0.80
2023-05-05T23:32:19.032Z,0.81
2023-05-05T23:33:18.993Z,0.87
2023-05-05T23:34:19.041Z,1.02
2023-05-05T23:35:19.027Z,0.94
2023-05-05T23:36:19.042Z,0.97
2023-05-05T23:37:19.128Z,1.25
2023-05-05T23:38:19.160Z,1.23
2023-05-05T23:39:19.139Z,1.20
2023-05-05T23:40:19.208Z,1.03
2023-05-05T23:41:19.247Z,1.02
2023-05-05T23:42:19.254Z,1.21